Flight Track Log - Related Links

Times and Time Zones

All times are in EDT time to prevent confusion due to time zone crossing. See the JUS327 flight status page for this flight to view local times or setup timezone preferences in your user account.

Time Position Orientation Groundspeed Altitude Reporting Facility
EDT Latitude Longitude Course Direction KTS km/h feet Rate Location/Type
Sat 19:27:11 27.6083 -99.4461 34° Northeast 199 369 2.900  Level Houston Center
Sat 19:28:12 27.6547 -99.4103 34° Northeast 200 370 4.500 1.805 Climbing Houston Center
Sat 19:29:14 27.7222 -99.3792 22° Northeast 238 441 6.600 2.341 Climbing Houston Center
Sat 19:30:15 27.8064 -99.3375 24° Northeast 263 488 9.300 2.213 Climbing Houston Center
Sat 19:31:16 27.8806 -99.3014 23° Northeast 275 509 11.100 1.426 Climbing Houston Center
Sat 19:32:17 27.9689 -99.2597 23° Northeast 324 600 12.200 1.463 Climbing Houston Center
Sat 19:33:19 28.0633 -99.2167 22° Northeast 358 663 14.100 1.707 Climbing Houston Center
Sat 19:34:20 28.1578 -99.1653 26° Northeast 373 690 15.700 1.525 Climbing Houston Center
Sat 19:35:21 28.2592 -99.1175 23° Northeast 390 723 17.200 1.366 Climbing Houston Center
Sat 19:36:23 28.3656 -99.0686 22° Northeast 408 756 18.500 1.268 Climbing Houston Center
Sat 19:37:24 28.4739 -99.0144 24° Northeast 422 782 19.800 1.328 Climbing Houston Center
Sat 19:38:25 28.5894 -98.9689 19° North 436 808 21.200 1.377 Climbing Houston Center
Sat 19:39:26 28.7172 -98.9008 25° Northeast 450 834 22.600 1.268 Climbing Houston Center
Sat 19:40:28 28.8439 -98.8436 22° Northeast 454 840 23.800 1.073 Climbing Houston Center
Sat 19:41:29 28.9653 -98.7900 21° North 466 863 24.800 984 Climbing Houston Center
Sat 19:42:30 29.0847 -98.7181 28° Northeast 484 896 25.800 885 Climbing Houston Center
Sat 19:43:31 29.1808 -98.5858 50° Northeast 505 935 26.600 927 Climbing Houston Center
Sat 19:44:33 29.2406 -98.4372 65° Northeast 515 954 27.700 927 Climbing Houston Center
Sat 19:45:34 29.3056 -98.2903 63° Northeast 520 962 28.500 836 Climbing Houston Center
Sat 19:46:35 29.3803 -98.1339 61° Northeast 523 969 29.400 829 Climbing Houston Center
Sat 19:47:37 29.4489 -97.9858 62° Northeast 528 978 30.200 683 Climbing Houston Center
Sat 19:48:38 29.5192 -97.8375 61° Northeast 530 982 30.800 492 Climbing Houston Center
Sat 19:49:39 29.5842 -97.6983 62° Northeast 546 1011 31.200 488 Climbing Houston Center
Sat 19:50:41 29.6561 -97.5453 62° Northeast 545 1009 31.800 537 Climbing Houston Center
Sat 19:51:42 29.7353 -97.3933 59° Northeast 548 1015 32.300 639 Climbing Houston Center
Sat 19:52:43 29.8292 -97.2514 53° Northeast 551 1020 33.100 780 Climbing Houston Center
Sat 19:53:45 29.9392 -97.0803 53° Northeast 550 1019 33.900 634 Climbing Houston Center
Sat 19:54:46 30.0194 -96.9306 58° Northeast 550 1019 34.400 492 Climbing Houston Center
Sat 19:55:47 30.1122 -96.7903 53° Northeast 552 1022 34.900 293 Climbing Houston Center
Sat 19:56:49 30.2394 -96.6789 37° Northeast 549 1017 35.000 49 Climbing Houston Center
Sat 19:57:50 30.3750 -96.6106 24° Northeast 535 991 35.000  Level Houston Center
Sat 19:58:51 30.5136 -96.5642 16° North 519 961 35.000  Level Houston Center
Sat 19:59:52 30.6519 -96.5283 13° North 509 943 35.000  Level Houston Center
Sat 20:00:54 30.7861 -96.4778 18° North 514 953 35.000  Level Houston Center
Sat 20:01:55 30.9133 -96.3850 32° Northeast 546 1011 35.000  Level Houston Center
Sat 20:02:56 31.0414 -96.3078 27° Northeast 521 966 35.000  Level Houston Center
Sat 20:03:57 31.1761 -96.2342 25° Northeast 526 974 35.000  Level Houston Center
Sat 20:04:59 31.3044 -96.1422 31° Northeast 534 990 35.000  Level Houston Center
Sat 20:05:25 31.3714 -96.0947 31° Northeast 525 972 35.000  Level Fort Worth Center
Sat 20:06:25 31.5061 -96.0147 27° Northeast 525 972 35.000  Level Fort Worth Center
Sat 20:07:25 31.6325 -95.9275 30° Northeast 532 985 35.000  Level Fort Worth Center
Sat 20:08:25 31.7422 -95.8547 29° Northeast 520 962 35.000  Level Fort Worth Center
Sat 20:09:25 31.8686 -95.7769 28° Northeast 514 953 35.000  Level Fort Worth Center
Sat 20:10:25 31.9928 -95.6864 32° Northeast 514 953 35.000  Level Fort Worth Center
Sat 20:11:26 32.1169 -95.6081 28° Northeast 514 953 35.000  Level Fort Worth Center
Sat 20:12:25 32.2411 -95.5269 29° Northeast 508 941 35.000  Level Fort Worth Center
Sat 20:13:25 32.3606 -95.4361 33° Northeast 508 941 35.000  Level Fort Worth Center
Sat 20:14:25 32.4908 -95.3469 30° Northeast 501 929 35.000  Level Fort Worth Center
Sat 20:15:25 32.6147 -95.2653 29° Northeast 496 919 35.000  Level Fort Worth Center
Sat 20:16:25 32.7342 -95.1758 32° Northeast 496 919 35.000  Level Fort Worth Center
Sat 20:17:25 32.8600 -95.0986 27° Northeast 504 933 35.000  Level Fort Worth Center
Sat 20:18:25 32.9794 -95.0114 31° Northeast 498 922 35.000  Level Fort Worth Center
Sat 20:19:26 33.1011 -94.9261 30° Northeast 498 922 35.000  Level Fort Worth Center
Sat 20:20:25 33.2269 -94.8506 27° Northeast 498 922 35.000  Level Fort Worth Center
Sat 20:21:25 33.3461 -94.7603 32° Northeast 498 922 35.000  Level Fort Worth Center
Sat 20:22:26 33.4694 -94.6769 29° Northeast 498 922 35.000  Level Fort Worth Center
Sat 20:23:26 33.5908 -94.6008 28° Northeast 498 922 35.000  Level Fort Worth Center
Sat 20:24:26 33.7119 -94.5094 32° Northeast 497 921 35.000  Level Fort Worth Center
Sat 20:25:25 33.8208 -94.4333 30° Northeast 497 921 35.000  Level Fort Worth Center
Sat 20:26:58 33.9992 -94.3100 30° Northeast 502 930 35.000  Level Kansas City Center
Sat 20:27:44 34.1106 -94.2281 31° Northeast 509 943 35.000  Level Memphis Center
Sat 20:28:44 34.2319 -94.1506 28° Northeast 496 919 35.000  Level Memphis Center
Sat 20:29:44 34.3494 -94.0628 32° Northeast 496 919 35.000  Level Memphis Center
Sat 20:30:44 34.4503 -93.9714 37° Northeast 496 919 35.000  Level Memphis Center
Sat 20:31:44 34.5733 -93.8958 27° Northeast 496 919 35.000  Level Memphis Center
Sat 20:32:44 34.6925 -93.8150 29° Northeast 485 898 35.000  Level Memphis Center
Sat 20:33:44 34.8056 -93.7261 33° Northeast 485 898 35.000  Level Memphis Center
Sat 20:34:44 34.9264 -93.6497 27° Northeast 479 887 35.000  Level Memphis Center
Sat 20:35:44 35.0456 -93.5656 30° Northeast 479 887 35.000  Level Memphis Center
Sat 20:36:44 35.1542 -93.4758 34° Northeast 479 887 35.000  Level Memphis Center
Sat 20:37:44 35.2706 -93.4014 28° Northeast 474 877 35.000  Level Memphis Center
Sat 20:38:44 35.3939 -93.3142 30° Northeast 469 869 35.000  Level Memphis Center
Sat 20:39:44 35.5022 -93.2236 34° Northeast 469 869 35.000  Level Memphis Center
Sat 20:40:44 35.6164 -93.1533 27° Northeast 463 858 35.000  Level Memphis Center
Sat 20:41:44 35.7228 -93.0625 35° Northeast 463 858 35.000  Level Memphis Center
Sat 20:42:44 35.8331 -92.9764 32° Northeast 463 858 35.000  Level Memphis Center
Sat 20:43:45 35.9450 -92.9031 28° Northeast 458 848 35.000  Level Memphis Center
Sat 20:44:44 36.0511 -92.8139 34° Northeast 458 848 35.000  Level Memphis Center
Sat 20:45:44 36.1631 -92.7325 30° Northeast 458 848 35.000  Level Memphis Center
Sat 20:46:44 36.2731 -92.6533 30° Northeast 458 848 35.000  Level Memphis Center
Sat 20:48:24 36.4408 -92.5131 34° Northeast 467 864 35.000  Level Kansas City Center
Sat 20:49:25 36.5542 -92.4364 29° Northeast 467 864 35.000  Level Kansas City Center
Sat 20:50:26 36.6703 -92.3453 32° Northeast 464 859 35.000  Level Kansas City Center
Sat 20:51:27 36.7794 -92.2547 34° Northeast 468 867 35.000  Level Kansas City Center
Sat 20:52:29 36.8953 -92.1806 27° Northeast 468 867 35.000  Level Kansas City Center
Sat 20:53:30 37.0033 -92.0889 34° Northeast 468 867 35.000  Level Kansas City Center
Sat 20:54:31 37.1025 -91.9775 42° Northeast 475 880 35.000  Level Kansas City Center
Sat 20:55:32 37.2178 -91.8392 44° Northeast 478 885 35.000  Level Kansas City Center
Sat 20:56:33 37.3239 -91.7392 37° Northeast 477 884 35.000  Level Kansas City Center
Sat 20:57:34 37.4214 -91.6228 43° Northeast 481 892 35.000  Level Kansas City Center
Sat 20:58:35 37.5208 -91.5106 42° Northeast 478 885 35.000  Level Kansas City Center
Sat 20:59:36 37.6256 -91.4042 39° Northeast 481 892 35.000  Level Kansas City Center
Sat 21:00:38 37.7228 -91.2842 44° Northeast 487 901 35.000  Level Kansas City Center
Sat 21:01:39 37.8242 -91.1697 42° Northeast 487 901 35.000  Level Kansas City Center
Sat 21:02:40 37.9358 -91.0547 39° Northeast 496 919 35.000  Level Kansas City Center
Sat 21:03:41 38.0336 -90.9297 45° Northeast 499 924 35.000  Level Kansas City Center
Sat 21:04:43 38.1397 -90.8189 39° Northeast 495 917 35.000  Level Kansas City Center
Sat 21:05:44 38.2442 -90.7006 42° Northeast 502 930 35.000  Level Kansas City Center
Sat 21:06:45 38.3428 -90.5717 46° Northeast 508 941 35.000  Level Kansas City Center
Sat 21:07:46 38.4650 -90.4258 43° Northeast 508 941 35.000  Level Kansas City Center
Sat 21:08:47 38.5472 -90.2728 55° Northeast 526 974 35.000  Level Kansas City Center
Sat 21:09:48 38.6422 -90.1450 46° Northeast 512 948 35.000  Level Kansas City Center
Sat 21:10:49 38.7450 -90.0086 46° Northeast 513 950 35.000  Level Kansas City Center
Sat 21:11:50 38.8272 -89.8706 53° Northeast 522 967 35.000  Level Kansas City Center
Sat 21:12:51 38.9378 -89.7219 46° Northeast 505 935 35.000  Level Kansas City Center
Sat 21:13:52 39.0311 -89.5836 49° Northeast 509 943 35.000  Level Kansas City Center
Sat 21:14:53 39.1208 -89.4389 51° Northeast 514 953 35.000  Level Kansas City Center
Sat 21:15:54 39.2050 -89.3300 45° Northeast 512 948 35.000  Level Kansas City Center
Sat 21:16:55 39.3144 -89.1617 50° Northeast 512 948 35.000  Level Kansas City Center
Sat 21:17:56 39.4047 -89.0214 50° Northeast 510 945 35.000  Level Kansas City Center
Sat 21:18:57 39.4881 -88.9108 46° Northeast 507 938 35.000  Level Kansas City Center
Sat 21:19:57 39.5922 -88.7386 52° Northeast 507 938 35.000  Level Kansas City Center
Sat 21:20:58 39.6864 -88.6031 48° Northeast 507 938 35.000  Level Kansas City Center
Sat 21:22:36 39.8303 -88.3794 50° Northeast 504 933 35.000  Level Kansas City Center
Sat 21:23:28 39.9017 -88.2656 51° Northeast 510 945 35.000  Level Chicago Center
Sat 21:24:30 40.0075 -88.1181 47° Northeast 507 938 35.000  Level Chicago Center
Sat 21:25:31 40.0958 -87.9708 52° Northeast 513 950 35.000  Level Chicago Center
Sat 21:26:29 40.1858 -87.8311 50° Northeast 507 938 35.000  Level Indianapolis Center
Sat 21:27:30 40.2803 -87.6947 48° Northeast 506 937 35.000  Level Indianapolis Center
Sat 21:28:31 40.3642 -87.5447 54° Northeast 509 943 35.000  Level Indianapolis Center
Sat 21:29:31 40.4592 -87.4089 47° Northeast 505 935 35.000  Level Indianapolis Center
Sat 21:30:32 40.5486 -87.2692 50° Northeast 502 930 35.000  Level Indianapolis Center
Sat 21:31:33 40.6331 -87.1211 53° Northeast 506 937 35.000  Level Indianapolis Center
Sat 21:32:33 40.7044 -86.9639 59° Northeast 511 946 35.000  Level Indianapolis Center
Sat 21:33:39 40.7469 -86.7619 74° East 508 941 35.000 -142 Level Chicago Center
Sat 21:34:40 40.8050 -86.5900 66° East 515 954 34.700 -738 Descending Chicago Center
Sat 21:35:41 40.8667 -86.4161 65° Northeast 522 967 33.500 -1.279 Descending Chicago Center
Sat 21:36:42 40.9197 -86.2292 69° East 538 996 32.100 -1.574 Descending Chicago Center
Sat 21:37:43 40.9861 -86.0558 63° Northeast 530 982 30.300 -1.820 Descending Chicago Center
Sat 21:38:44 41.0428 -85.8800 67° East 521 966 28.400 -2.115 Descending Chicago Center
Sat 21:39:45 41.1108 -85.7250 60° Northeast 498 922 26.000 -1.967 Descending Chicago Center
Sat 21:40:46 41.1978 -85.5992 47° Northeast 467 864 24.400 -1.672 Descending Chicago Center
Sat 21:41:47 41.2797 -85.4278 57° Northeast 460 851 22.600 -1.377 Descending Chicago Center
Sat 21:42:48 41.3528 -85.2906 55° Northeast 461 855 21.600 -793 Descending Chicago Center
Sat 21:43:48 41.4292 -85.1656 51° Northeast 446 826 21.000 -347 Descending Chicago Center
Sat 21:44:49 41.4961 -85.0283 57° Northeast 447 827 20.900 -984 Descending Chicago Center
Sat 21:45:50 41.5653 -84.8917 56° Northeast 449 832 19.000 -2.115 Descending Chicago Center
Sat 21:46:51 41.6397 -84.7722 50° Northeast 426 789 16.600 -2.625 Descending Chicago Center
Sat 21:47:10 41.6706 -84.7200 52° Northeast 426 789 15.500 -2.658 Descending Cleveland Center
Sat 21:48:10 41.7311 -84.5986 56° Northeast 413 764 13.100 -2.300 Descending Cleveland Center
Sat 21:49:10 41.7936 -84.4800 55° Northeast 396 734 10.900 -1.846 Descending Cleveland Center
Sat 21:49:28 41.8136 -84.4478 50° Northeast 377 698 10.700 -700 Descending Cleveland Center
Sat 21:50:10 41.8475 -84.3661 61° Northeast 376 697 10.200 -590 Descending Cleveland Center
Sat 21:50:29 41.8653 -84.3336 54° Northeast 346 641 10.100 -300 Descending Cleveland Center
Sat 21:51:10 41.8939 -84.2850 52° Northeast 356 660 9.900  Descending Cleveland Center
Sat 21:51:29 41.9206 -84.2364 54° Northeast 320 592 10.100 100 Climbing Cleveland Center
Sat 21:52:10 41.9450 -84.1847 58° Northeast 320 592 10.000  Descending Cleveland Center
Sat 21:52:30 41.9672 -84.1469 52° Northeast 297 550 10.100  Climbing Cleveland Center
Sat 21:53:10 42.0000 -84.0983 48° Northeast 306 566 10.000 -492 Descending Cleveland Center
Sat 21:53:31 42.0239 -84.0606 50° Northeast 302 560 9.600 -1.300 Descending Cleveland Center
Sat 21:54:10 42.0464 -84.0058 61° Northeast 296 549 8.700 -1.600 Descending Cleveland Center
Sat 21:54:31 42.0625 -83.9564 66° East 296 549 8.000 -1.829 Descending Cleveland Center
Sat 21:55:32 42.1006 -83.8633 61° Northeast 287 531 6.200 -1.736 Descending Cleveland Center
Sat 21:56:32 42.1161 -83.7547 79° East 293 542 4.500 -1.537 Descending Cleveland Center
Sat 21:57:33 42.1375 -83.6664 72° East 239 443 3.100 -1.180 Descending Cleveland Center
Sat 21:58:34 42.1739 -83.6233 41° Northeast 161 298 2.100 -803 Descending Cleveland Center
Sat 21:59:40 42.2086 -83.5772 45° Northeast 137 254 1.400 -636 Descending Cleveland Center
Sat 22:01:00 42.2333 -83.5167 62° Northeast  Level FlightAware Approximate
Sat 22:08:00 42.2393 -83.5310 62° Northeast  Level Estimated

Login

Don't have an account? Register now (free) for customized features, flight alerts, and more!